»·PEaware :: AAL711 KLAS-KPHX

AAL711 :: KLAS-KPHX

FLIGHT INFORMATION

Flight Status: Arrived
Operator:
American Airlines
More flights by this operator :: More flights under this callsign
Pilot: Patricio R. (14780)
Aircraft: BOEING 737-800
(B738)
More flights by this aircraft type
Origin: KLAS McCarran Intl
United States
Destination: KPHX Phoenix Sky Harbor Intl
United States
More flights between these airports :: More routes between these airports
Route: COWBY8 COWBY TENTS BRUSR1
File this flight plan on PilotEdge
Remarks: PBN / A1B1C1D1S1S2 DOF / 180726 REG / N806SB EET / KZAB0022 OPR / AAL PER / C RMK / TCAS SIMBRIEF
Altitude:
(Current/Filed)
29,000ft
Speed:
(Current/Filed)
464kts
Departed: 26-Jul-18 11:02 AM
Arrived: 26-Jul-18 11:57 AM
Distance/Time
Traveled:
222nm/0:55
Distance/Time
To Go:
Arrived

Flight Plot

Page will automatically refresh every two minutes.

Flight plan parsing failed; only flown route is shown


Map Options




Map Legend


Flown Route
Filed Route
Departure Airport
Arrival Airport
Navaid (VOR, NDB)
Fix

Horizontal Profiles

Position Reports

Time Latitude Longitude Heading Altitude Ground
Speed
26-Jul-18 10:45 36.079970 -115.135667 22 2118ft 0kts
26-Jul-18 10:46 36.079970 -115.135667 22 2118ft 0kts
26-Jul-18 10:47 36.079970 -115.135667 22 2118ft 0kts
26-Jul-18 10:48 36.079970 -115.135667 22 2118ft 0kts
26-Jul-18 10:49 36.079970 -115.135667 22 2118ft 0kts
26-Jul-18 10:50 36.079970 -115.135667 22 2118ft 0kts
26-Jul-18 10:51 36.079970 -115.135667 22 2118ft 0kts
26-Jul-18 10:52 36.079542 -115.135880 22 2118ft 2kts
26-Jul-18 10:53 36.079382 -115.136487 126 2118ft 2kts
26-Jul-18 10:54 36.079457 -115.136582 135 2118ft 0kts
26-Jul-18 10:55 36.079457 -115.136582 135 2118ft 0kts
26-Jul-18 10:56 36.078362 -115.135173 118 2118ft 11kts
26-Jul-18 10:57 36.078273 -115.131782 89 2118ft 12kts
26-Jul-18 10:58 36.078278 -115.127214 90 2118ft 12kts
26-Jul-18 10:59 36.077881 -115.122076 131 2118ft 8kts
26-Jul-18 11:00 36.077506 -115.121545 131 2118ft 0kts
26-Jul-18 11:01 36.077506 -115.121545 131 2118ft 0kts
26-Jul-18 11:02 36.076549 -115.121362 219 2118ft 15kts
26-Jul-18 11:03 36.076371 -115.157126 269 2267ft 187kts
26-Jul-18 11:04 36.075916 -115.220626 270 4542ft 196kts
26-Jul-18 11:05 36.036633 -115.274381 200 5744ft 271kts
26-Jul-18 11:06 35.987080 -115.296230 198 7049ft 293kts
26-Jul-18 11:09 35.820530 -115.061184 89 14362ft 352kts
26-Jul-18 11:10 35.832212 -114.940120 81 16833ft 361kts
26-Jul-18 11:11 35.844164 -114.814792 81 18945ft 376kts
26-Jul-18 11:12 35.855920 -114.685982 82 19045ft 375kts
26-Jul-18 11:13 35.867494 -114.556484 82 20078ft 384kts
26-Jul-18 11:14 35.879139 -114.423967 82 22033ft 397kts
26-Jul-18 11:15 35.890614 -114.291445 83 23752ft 409kts
26-Jul-18 11:16 35.901486 -114.164334 83 25262ft 420kts
26-Jul-18 11:17 35.914705 -114.007256 83 26970ft 431kts
26-Jul-18 11:18 35.911845 -113.859497 109 28407ft 438kts
26-Jul-18 11:19 35.870447 -113.716782 111 29186ft 453kts
26-Jul-18 11:20 35.826148 -113.566490 111 29183ft 480kts
26-Jul-18 11:21 35.779993 -113.410120 111 29176ft 486kts
26-Jul-18 11:22 35.735367 -113.259462 111 29176ft 486kts
26-Jul-18 11:23 35.689060 -113.103818 111 29321ft 485kts
26-Jul-18 11:24 35.642502 -112.948171 112 29405ft 486kts
26-Jul-18 11:25 35.595675 -112.792482 111 29407ft 487kts
26-Jul-18 11:26 35.548544 -112.636633 112 29406ft 487kts
26-Jul-18 11:27 35.492900 -112.487349 137 29426ft 478kts
26-Jul-18 11:28 35.375323 -112.426967 173 29405ft 464kts
26-Jul-18 11:29 35.248283 -112.402849 174 29402ft 464kts
26-Jul-18 11:30 35.119817 -112.376633 173 29380ft 468kts
26-Jul-18 11:31 34.996149 -112.349954 173 28110ft 470kts
26-Jul-18 11:32 34.882533 -112.325487 172 26785ft 472kts
26-Jul-18 11:33 34.753533 -112.297290 172 25281ft 480kts
26-Jul-18 11:34 34.623852 -112.268803 172 23444ft 456kts
26-Jul-18 11:35 34.506431 -112.243010 172 21553ft 400kts
26-Jul-18 11:36 34.401326 -112.218603 169 19732ft 383kts
26-Jul-18 11:37 34.299716 -112.192264 169 18008ft 366kts
26-Jul-18 11:38 34.203152 -112.167280 169 16491ft 348kts
26-Jul-18 11:39 34.110200 -112.143293 168 14981ft 336kts
26-Jul-18 11:40 34.022159 -112.112271 161 13569ft 325kts
26-Jul-18 11:41 33.937445 -112.077447 161 12283ft 320kts
26-Jul-18 11:42 33.855877 -112.044093 161 10970ft 314kts
26-Jul-18 11:43 33.779511 -112.012992 161 9660ft 309kts
26-Jul-18 11:44 33.699711 -111.980605 162 8547ft 289kts
26-Jul-18 11:45 33.626662 -111.951029 162 7874ft 271kts
26-Jul-18 11:46 33.568716 -111.927581 162 7345ft 257kts
26-Jul-18 11:47 33.541420 -111.861099 88 7042ft 244kts
26-Jul-18 11:48 33.540977 -111.779643 88 6747ft 250kts
26-Jul-18 11:49 33.540597 -111.697853 88 5604ft 240kts
26-Jul-18 11:50 33.533483 -111.622279 135 5084ft 229kts
26-Jul-18 11:51 33.479908 -111.636066 228 5054ft 224kts
26-Jul-18 11:52 33.439572 -111.692915 240 4795ft 227kts
26-Jul-18 11:53 33.439249 -111.764030 275 4026ft 204kts
26-Jul-18 11:54 33.440537 -111.830062 270 3766ft 198kts
26-Jul-18 11:55 33.440638 -111.890332 271 2829ft 163kts
26-Jul-18 11:56 33.440778 -111.942118 272 1980ft 154kts
26-Jul-18 11:57 33.440826 -111.992687 271 1149ft 149kts
26-Jul-18 11:58 33.440779 -112.016215 256 1117ft 18kts
26-Jul-18 11:59 33.439017 -112.015376 90 1116ft 19kts
26-Jul-18 12:00 33.439012 -112.006382 89 1116ft 29kts
26-Jul-18 12:01 33.438862 -111.997935 143 1116ft 10kts
26-Jul-18 12:02 33.437535 -111.997731 90 1116ft 1kts
26-Jul-18 12:03 33.437520 -111.997383 92 1116ft 0kts

Navigation Log

Ident Type
Flight plan parsing failed, navigation log unavailable